PWSweather.com
Personal Weather Stations
Station Observations
S56IPS
Mostec 12, MostecSI 8257

Mostec 12MostecSI 8257

Lat: 45.899181, Lon: 15.628339

Elevation: 143

Station Type: WX-2008

Latest ConditionsUpdated 5:35:02 PM GMT+01:01 Tuesday, Sep 2, 2014
Currently Today's Max Today's Min Today's Average
Temperature 58.1°F14.5°C 62.1°F16.7°C 57.4°F14.1°C 59.0°F15.0°C
Dew Point 57.8°F14.3°C 59.5°F15.3°C 56.3°F13.5°C 57.9°F14.4°C
Winds Calm Calm 2.2 mph S3.5 kmh S - 0.1 mph 0.2 kmh
Wind Gusts 2.2 mph3.5 kmh 5.4 mph8.7 kmh - -
Humidity 99% 99% 82% 96%
Pressure 29.88 in1011.9 mb 29.88 in1011.9 mb 29.80 in1009.1 mb -
Precipitation - 0.50 in12.7 mm - -
Hour Temp Dew Point Humidity Winds Wind Gusts Pressure Precip Precip Rate Daily Precip Total
05:35 PM 58.1°F14.5°C 57.8°F14.3°C 99% Calm Calm 2.2 mph3.5 kmh 29.88 in1011.9 mb 0.04 in1.0 mm 0.00 in/hr0.0 mm/hr 0.50 in12.7 mm
05:30 PM 58.1°F14.5°C 57.8°F14.3°C 99% Calm Calm 2.2 mph3.5 kmh 29.88 in1011.9 mb 0.04 in1.0 mm 0.00 in/hr0.0 mm/hr 0.50 in12.7 mm
05:25 PM 58.3°F14.6°C 58.0°F14.4°C 99% Calm Calm 1.6 mph2.6 kmh 29.88 in1011.9 mb 0.04 in1.0 mm 0.00 in/hr0.0 mm/hr 0.50 in12.7 mm
05:20 PM 58.1°F14.5°C 57.8°F14.3°C 99% Calm Calm 1.6 mph2.6 kmh 29.88 in1011.9 mb 0.05 in1.3 mm 0.12 in/hr3.0 mm/hr 0.50 in12.7 mm
05:15 PM 58.1°F14.5°C 57.8°F14.3°C 99% Calm Calm 1.6 mph2.6 kmh 29.88 in1011.9 mb 0.04 in1.0 mm 0.00 in/hr0.0 mm/hr 0.48 in12.2 mm
05:10 PM 58.1°F14.5°C 57.8°F14.3°C 99% Calm Calm 1.6 mph2.6 kmh 29.88 in1011.9 mb 0.04 in1.0 mm 0.00 in/hr0.0 mm/hr 0.48 in12.2 mm
05:05 PM 58.1°F14.5°C 57.8°F14.3°C 99% Calm Calm 1.6 mph2.6 kmh 29.88 in1011.9 mb 0.04 in1.0 mm 0.00 in/hr0.0 mm/hr 0.48 in12.2 mm
05:00 PM 58.1°F14.5°C 57.8°F14.3°C 99% Calm Calm 1.6 mph2.6 kmh 29.88 in1011.9 mb 0.04 in1.0 mm 0.00 in/hr0.0 mm/hr 0.48 in12.2 mm
04:55 PM 58.3°F14.6°C 58.0°F14.4°C 99% Calm Calm 1.6 mph2.6 kmh 29.88 in1011.9 mb 0.04 in1.0 mm 0.24 in/hr6.1 mm/hr 0.48 in12.2 mm
04:50 PM 58.3°F14.6°C 58.0°F14.4°C 99% Calm Calm 1.6 mph2.6 kmh 29.88 in1011.9 mb 0.02 in0.5 mm 0.00 in/hr0.0 mm/hr 0.47 in11.9 mm
04:45 PM 58.1°F14.5°C 57.8°F14.3°C 99% 0.7 mph W1.1 kmh W 1.6 mph2.6 kmh 29.88 in1011.9 mb 0.02 in0.5 mm 0.12 in/hr3.0 mm/hr 0.47 in11.9 mm
04:40 PM 58.3°F14.6°C 58.0°F14.4°C 99% Calm Calm 1.6 mph2.6 kmh 29.88 in1011.9 mb 0.01 in0.3 mm 0.00 in/hr0.0 mm/hr 0.46 in11.7 mm
04:35 PM 58.1°F14.5°C 57.8°F14.3°C 99% Calm Calm 1.6 mph2.6 kmh 29.88 in1011.9 mb 0.01 in0.3 mm 0.00 in/hr0.0 mm/hr 0.46 in11.7 mm
04:30 PM 58.1°F14.5°C 57.8°F14.3°C 99% Calm Calm 1.6 mph2.6 kmh 29.88 in1011.9 mb 0.01 in0.3 mm 0.00 in/hr0.0 mm/hr 0.46 in11.7 mm
04:25 PM 58.1°F14.5°C 57.8°F14.3°C 99% Calm Calm 0.7 mph1.1 kmh 29.88 in1011.9 mb 0.01 in0.3 mm 0.00 in/hr0.0 mm/hr 0.45 in11.4 mm
04:20 PM 58.3°F14.6°C 58.0°F14.4°C 99% Calm Calm 0.7 mph1.1 kmh 29.88 in1011.9 mb 0.01 in0.3 mm 0.00 in/hr0.0 mm/hr 0.45 in11.4 mm
04:15 PM 58.3°F14.6°C 58.0°F14.4°C 99% Calm Calm 1.6 mph2.6 kmh 29.87 in1011.5 mb 0.01 in0.3 mm 0.00 in/hr0.0 mm/hr 0.45 in11.4 mm
04:10 PM 58.1°F14.5°C 57.8°F14.3°C 99% Calm Calm 1.6 mph2.6 kmh 29.88 in1011.9 mb 0.01 in0.3 mm 0.00 in/hr0.0 mm/hr 0.45 in11.4 mm
04:05 PM 58.1°F14.5°C 57.8°F14.3°C 99% Calm Calm 1.6 mph2.6 kmh 29.87 in1011.5 mb 0.01 in0.3 mm 0.00 in/hr0.0 mm/hr 0.45 in11.4 mm
04:00 PM 58.1°F14.5°C 57.8°F14.3°C 99% 0.7 mph W1.1 kmh W 1.6 mph2.6 kmh 29.88 in1011.9 mb 0.02 in0.5 mm 0.00 in/hr0.0 mm/hr 0.45 in11.4 mm
03:55 PM 58.1°F14.5°C 57.8°F14.3°C 99% Calm Calm 1.6 mph2.6 kmh 29.88 in1011.9 mb 0.02 in0.5 mm 0.00 in/hr0.0 mm/hr 0.45 in11.4 mm
03:50 PM 58.1°F14.5°C 57.8°F14.3°C 99% Calm Calm 1.6 mph2.6 kmh 29.87 in1011.5 mb 0.04 in1.0 mm 0.00 in/hr0.0 mm/hr 0.45 in11.4 mm
03:45 PM 58.1°F14.5°C 57.8°F14.3°C 99% 0.7 mph W1.1 kmh W 2.2 mph3.5 kmh 29.87 in1011.5 mb 0.04 in1.0 mm 0.00 in/hr0.0 mm/hr 0.45 in11.4 mm
03:40 PM 58.1°F14.5°C 57.8°F14.3°C 99% Calm Calm 3.1 mph5.0 kmh 29.88 in1011.9 mb 0.05 in1.3 mm 0.00 in/hr0.0 mm/hr 0.45 in11.4 mm
03:35 PM 58.3°F14.6°C 58.0°F14.4°C 99% 0.7 mph WSW1.1 kmh WSW 3.1 mph5.0 kmh 29.88 in1011.9 mb 0.05 in1.3 mm 0.00 in/hr0.0 mm/hr 0.45 in11.4 mm
03:30 PM 58.5°F14.7°C 58.2°F14.6°C 99% 0.7 mph W1.1 kmh W 3.1 mph5.0 kmh 29.88 in1011.9 mb 0.06 in1.5 mm 0.00 in/hr0.0 mm/hr 0.45 in11.4 mm
03:25 PM 58.5°F14.7°C 58.2°F14.6°C 99% 0.7 mph W1.1 kmh W 2.2 mph3.5 kmh 29.88 in1011.9 mb 0.06 in1.5 mm 0.00 in/hr0.0 mm/hr 0.44 in11.2 mm
03:20 PM 58.5°F14.7°C 58.2°F14.6°C 99% Calm Calm 2.2 mph3.5 kmh 29.88 in1011.9 mb 0.06 in1.5 mm 0.00 in/hr0.0 mm/hr 0.44 in11.2 mm
03:15 PM 58.5°F14.7°C 58.2°F14.6°C 99% Calm Calm 2.2 mph3.5 kmh 29.88 in1011.9 mb 0.06 in1.5 mm 0.00 in/hr0.0 mm/hr 0.44 in11.2 mm
03:10 PM 58.6°F14.8°C 58.4°F14.7°C 99% 0.7 mph W1.1 kmh W 1.6 mph2.6 kmh 29.88 in1011.9 mb 0.07 in1.8 mm 0.12 in/hr3.0 mm/hr 0.44 in11.2 mm
03:05 PM 58.8°F14.9°C 58.6°F14.8°C 99% Calm Calm 1.6 mph2.6 kmh 29.88 in1011.9 mb 0.06 in1.5 mm 0.00 in/hr0.0 mm/hr 0.43 in10.9 mm
03:00 PM 58.8°F14.9°C 58.6°F14.8°C 99% Calm Calm 1.6 mph2.6 kmh 29.88 in1011.9 mb 0.06 in1.5 mm 0.00 in/hr0.0 mm/hr 0.43 in10.9 mm
02:55 PM 58.8°F14.9°C 58.6°F14.8°C 99% Calm Calm 2.2 mph3.5 kmh 29.88 in1011.9 mb 0.07 in1.8 mm 0.12 in/hr3.0 mm/hr 0.43 in10.9 mm
02:50 PM 58.8°F14.9°C 58.6°F14.8°C 99% Calm Calm 2.2 mph3.5 kmh 29.88 in1011.9 mb 0.06 in1.5 mm 0.00 in/hr0.0 mm/hr 0.41 in10.4 mm
02:45 PM 58.8°F14.9°C 58.6°F14.8°C 99% Calm Calm 2.2 mph3.5 kmh 29.88 in1011.9 mb 0.07 in1.8 mm 0.12 in/hr3.0 mm/hr 0.41 in10.4 mm
02:40 PM 59.0°F15.0°C 58.7°F14.8°C 99% 0.7 mph W1.1 kmh W 1.6 mph2.6 kmh 29.88 in1011.9 mb 0.06 in1.5 mm 0.00 in/hr0.0 mm/hr 0.40 in10.2 mm
02:35 PM 59.0°F15.0°C 58.7°F14.8°C 99% Calm Calm 1.6 mph2.6 kmh 29.88 in1011.9 mb 0.07 in1.8 mm 0.12 in/hr3.0 mm/hr 0.40 in10.2 mm
02:30 PM 59.0°F15.0°C 58.7°F14.8°C 99% Calm Calm 1.6 mph2.6 kmh 29.88 in1011.9 mb 0.06 in1.5 mm 0.12 in/hr3.0 mm/hr 0.39 in9.9 mm
02:25 PM 59.0°F15.0°C 58.7°F14.8°C 99% Calm Calm 1.6 mph2.6 kmh 29.88 in1011.9 mb 0.05 in1.3 mm 0.00 in/hr0.0 mm/hr 0.38 in9.7 mm
02:20 PM 59.2°F15.1°C 58.9°F14.9°C 99% Calm Calm 0.7 mph1.1 kmh 29.88 in1011.9 mb 0.05 in1.3 mm 0.00 in/hr0.0 mm/hr 0.38 in9.7 mm
02:15 PM 59.2°F15.1°C 58.9°F14.9°C 99% Calm Calm 0.7 mph1.1 kmh 29.88 in1011.9 mb 0.05 in1.3 mm 0.12 in/hr3.0 mm/hr 0.38 in9.7 mm
02:10 PM 59.2°F15.1°C 58.9°F14.9°C 99% Calm Calm 0.7 mph1.1 kmh 29.88 in1011.9 mb 0.04 in1.0 mm 0.00 in/hr0.0 mm/hr 0.37 in9.4 mm
02:05 PM 59.2°F15.1°C 58.9°F14.9°C 99% Calm Calm 0.7 mph1.1 kmh 29.88 in1011.9 mb 0.04 in1.0 mm 0.00 in/hr0.0 mm/hr 0.37 in9.4 mm
02:00 PM 59.2°F15.1°C 58.9°F14.9°C 99% Calm Calm 0.7 mph1.1 kmh 29.88 in1011.9 mb 0.04 in1.0 mm 0.02 in/hr0.5 mm/hr 0.37 in9.4 mm
01:55 PM 59.2°F15.1°C 58.9°F14.9°C 99% Calm Calm 0.7 mph1.1 kmh 29.88 in1011.9 mb 0.02 in0.5 mm 0.00 in/hr0.0 mm/hr 0.35 in8.9 mm
01:50 PM 59.2°F15.1°C 58.9°F14.9°C 99% Calm Calm 1.6 mph2.6 kmh 29.88 in1011.9 mb 0.02 in0.5 mm 0.12 in/hr3.0 mm/hr 0.35 in8.9 mm
01:45 PM 59.4°F15.2°C 59.1°F15.1°C 99% Calm Calm 1.6 mph2.6 kmh 29.88 in1011.9 mb 0.01 in0.3 mm 0.00 in/hr0.0 mm/hr 0.34 in8.6 mm
01:40 PM 59.4°F15.2°C 59.1°F15.1°C 99% Calm Calm -- 29.88 in1011.9 mb 0.01 in0.3 mm 0.12 in/hr3.0 mm/hr 0.34 in8.6 mm
01:35 PM 59.5°F15.3°C 59.3°F15.2°C 99% Calm Calm -- 29.88 in1011.9 mb 0.00 in0.0 mm 0.00 in/hr0.0 mm/hr 0.33 in8.4 mm
01:30 PM 59.5°F15.3°C 59.3°F15.2°C 99% Calm Calm 0.7 mph1.1 kmh 29.88 in1011.9 mb 0.00 in0.0 mm 0.00 in/hr0.0 mm/hr 0.33 in8.4 mm
01:25 PM 59.4°F15.2°C 59.1°F15.1°C 99% Calm Calm 0.7 mph1.1 kmh 29.88 in1011.9 mb 0.00 in0.0 mm 0.00 in/hr0.0 mm/hr 0.33 in8.4 mm
01:20 PM 59.5°F15.3°C 59.3°F15.2°C 99% Calm Calm 0.7 mph1.1 kmh 29.88 in1011.9 mb 0.00 in0.0 mm 0.00 in/hr0.0 mm/hr 0.33 in8.4 mm
01:15 PM 59.5°F15.3°C 59.3°F15.2°C 99% Calm Calm 1.6 mph2.6 kmh 29.88 in1011.9 mb 0.00 in0.0 mm 0.00 in/hr0.0 mm/hr 0.33 in8.4 mm
01:10 PM 59.5°F15.3°C 59.3°F15.2°C 99% Calm Calm 1.6 mph2.6 kmh 29.88 in1011.9 mb 0.00 in0.0 mm 0.00 in/hr0.0 mm/hr 0.33 in8.4 mm
01:05 PM 59.5°F15.3°C 59.3°F15.2°C 99% Calm Calm 1.6 mph2.6 kmh 29.88 in1011.9 mb 0.01 in0.3 mm 0.00 in/hr0.0 mm/hr 0.33 in8.4 mm
01:00 PM 59.7°F15.4°C 59.5°F15.3°C 99% 0.7 mph W1.1 kmh W 1.6 mph2.6 kmh 29.88 in1011.9 mb 0.01 in0.3 mm 0.00 in/hr0.0 mm/hr 0.33 in8.4 mm
12:55 PM 59.7°F15.4°C 59.5°F15.3°C 99% Calm Calm 0.7 mph1.1 kmh 29.88 in1011.9 mb 0.01 in0.3 mm 0.00 in/hr0.0 mm/hr 0.33 in8.4 mm
12:50 PM 59.7°F15.4°C 59.5°F15.3°C 99% Calm Calm 0.7 mph1.1 kmh 29.88 in1011.9 mb 0.01 in0.3 mm 0.00 in/hr0.0 mm/hr 0.33 in8.4 mm
12:45 PM 59.5°F15.3°C 59.3°F15.2°C 99% Calm Calm 0.7 mph1.1 kmh 29.87 in1011.5 mb 0.02 in0.5 mm 0.00 in/hr0.0 mm/hr 0.33 in8.4 mm
12:40 PM 59.4°F15.2°C 59.1°F15.1°C 99% Calm Calm 0.7 mph1.1 kmh 29.88 in1011.9 mb 0.02 in0.5 mm 0.00 in/hr0.0 mm/hr 0.33 in8.4 mm
12:35 PM 59.4°F15.2°C 59.1°F15.1°C 99% Calm Calm 1.6 mph2.6 kmh 29.88 in1011.9 mb 0.02 in0.5 mm 0.00 in/hr0.0 mm/hr 0.33 in8.4 mm
12:30 PM 59.2°F15.1°C 58.9°F14.9°C 99% Calm Calm 1.6 mph2.6 kmh 29.87 in1011.5 mb 0.04 in1.0 mm 0.00 in/hr0.0 mm/hr 0.33 in8.4 mm
12:25 PM 59.2°F15.1°C 58.9°F14.9°C 99% Calm Calm 1.6 mph2.6 kmh 29.87 in1011.5 mb 0.05 in1.3 mm 0.00 in/hr0.0 mm/hr 0.33 in8.4 mm
12:20 PM 59.2°F15.1°C 58.9°F14.9°C 99% Calm Calm 0.7 mph1.1 kmh 29.88 in1011.9 mb 0.05 in1.3 mm 0.00 in/hr0.0 mm/hr 0.33 in8.4 mm
12:15 PM 59.0°F15.0°C 58.7°F14.8°C 99% Calm Calm 2.2 mph3.5 kmh 29.87 in1011.5 mb 0.05 in1.3 mm 0.00 in/hr0.0 mm/hr 0.33 in8.4 mm
12:10 PM 59.0°F15.0°C 58.7°F14.8°C 99% Calm Calm 3.1 mph5.0 kmh 29.87 in1011.5 mb 0.05 in1.3 mm 0.12 in/hr3.0 mm/hr 0.33 in8.4 mm
12:05 PM 59.0°F15.0°C 58.7°F14.8°C 99% Calm Calm 3.1 mph5.0 kmh 29.87 in1011.5 mb 0.04 in1.0 mm 0.00 in/hr0.0 mm/hr 0.32 in8.1 mm
12:00 PM 59.2°F15.1°C 58.9°F14.9°C 99% 0.7 mph W1.1 kmh W 2.2 mph3.5 kmh 29.88 in1011.9 mb 0.04 in1.0 mm 0.00 in/hr0.0 mm/hr 0.32 in8.1 mm
11:55 AM 59.2°F15.1°C 58.9°F14.9°C 99% Calm Calm 1.6 mph2.6 kmh 29.87 in1011.5 mb 0.04 in1.0 mm 0.24 in/hr6.1 mm/hr 0.32 in8.1 mm
11:50 AM 59.2°F15.1°C 58.9°F14.9°C 99% Calm Calm 1.6 mph2.6 kmh 29.87 in1011.5 mb 0.02 in0.5 mm 0.00 in/hr0.0 mm/hr 0.31 in7.9 mm
11:45 AM 59.2°F15.1°C 58.9°F14.9°C 99% Calm Calm 1.6 mph2.6 kmh 29.87 in1011.5 mb 0.02 in0.5 mm 0.00 in/hr0.0 mm/hr 0.31 in7.9 mm
11:40 AM 59.0°F15.0°C 58.7°F14.8°C 99% Calm Calm 1.6 mph2.6 kmh 29.86 in1011.2 mb 0.02 in0.5 mm 0.00 in/hr0.0 mm/hr 0.31 in7.9 mm
11:35 AM 59.0°F15.0°C 58.7°F14.8°C 99% Calm Calm 2.2 mph3.5 kmh 29.87 in1011.5 mb 0.04 in1.0 mm 0.24 in/hr6.1 mm/hr 0.31 in7.9 mm
11:30 AM 58.8°F14.9°C 58.6°F14.8°C 99% Calm Calm 2.2 mph3.5 kmh 29.86 in1011.2 mb 0.02 in0.5 mm 0.12 in/hr3.0 mm/hr 0.30 in7.6 mm
11:25 AM 58.8°F14.9°C 58.6°F14.8°C 99% Calm Calm 2.2 mph3.5 kmh 29.87 in1011.5 mb 0.01 in0.3 mm 0.00 in/hr0.0 mm/hr 0.28 in7.1 mm
11:20 AM 58.8°F14.9°C 58.6°F14.8°C 99% 0.7 mph W1.1 kmh W 1.6 mph2.6 kmh 29.87 in1011.5 mb 0.01 in0.3 mm 0.00 in/hr0.0 mm/hr 0.28 in7.1 mm
11:15 AM 58.8°F14.9°C 58.6°F14.8°C 99% Calm Calm 1.6 mph2.6 kmh 29.87 in1011.5 mb 0.01 in0.3 mm 0.00 in/hr0.0 mm/hr 0.28 in7.1 mm
11:10 AM 59.0°F15.0°C 58.7°F14.8°C 99% Calm Calm 2.2 mph3.5 kmh 29.87 in1011.5 mb 0.01 in0.3 mm 0.00 in/hr0.0 mm/hr 0.28 in7.1 mm
11:05 AM 59.0°F15.0°C 58.7°F14.8°C 99% Calm Calm 2.2 mph3.5 kmh 29.87 in1011.5 mb 0.01 in0.3 mm 0.00 in/hr0.0 mm/hr 0.28 in7.1 mm
11:00 AM 59.0°F15.0°C 58.7°F14.8°C 99% 0.7 mph WNW1.1 kmh WNW 1.6 mph2.6 kmh 29.87 in1011.5 mb 0.01 in0.3 mm 0.00 in/hr0.0 mm/hr 0.28 in7.1 mm
10:55 AM 59.0°F15.0°C 58.7°F14.8°C 99% Calm Calm 2.2 mph3.5 kmh 29.87 in1011.5 mb 0.01 in0.3 mm 0.00 in/hr0.0 mm/hr 0.28 in7.1 mm
10:50 AM 59.0°F15.0°C 58.7°F14.8°C 99% Calm Calm 2.2 mph3.5 kmh 29.87 in1011.5 mb 0.01 in0.3 mm 0.00 in/hr0.0 mm/hr 0.28 in7.1 mm
10:45 AM 59.0°F15.0°C 58.7°F14.8°C 99% 0.7 mph W1.1 kmh W 2.2 mph3.5 kmh 29.87 in1011.5 mb 0.01 in0.3 mm 0.00 in/hr0.0 mm/hr 0.28 in7.1 mm
10:40 AM 59.0°F15.0°C 58.7°F14.8°C 99% Calm Calm 2.2 mph3.5 kmh 29.87 in1011.5 mb 0.01 in0.3 mm 0.12 in/hr3.0 mm/hr 0.28 in7.1 mm
10:35 AM 59.0°F15.0°C 58.7°F14.8°C 99% 0.7 mph W1.1 kmh W 2.2 mph3.5 kmh 29.87 in1011.5 mb 0.00 in0.0 mm 0.00 in/hr0.0 mm/hr 0.27 in6.9 mm
10:30 AM 59.0°F15.0°C 58.7°F14.8°C 99% Calm Calm 2.2 mph3.5 kmh 29.87 in1011.5 mb 0.00 in0.0 mm 0.00 in/hr0.0 mm/hr 0.27 in6.9 mm
10:25 AM 59.0°F15.0°C 58.7°F14.8°C 99% 0.7 mph WSW1.1 kmh WSW 2.2 mph3.5 kmh 29.87 in1011.5 mb 0.00 in0.0 mm 0.00 in/hr0.0 mm/hr 0.27 in6.9 mm
10:20 AM 59.2°F15.1°C 58.9°F14.9°C 99% 0.7 mph WSW1.1 kmh WSW 2.2 mph3.5 kmh 29.87 in1011.5 mb 0.00 in0.0 mm 0.00 in/hr0.0 mm/hr 0.27 in6.9 mm
10:15 AM 59.2°F15.1°C 58.9°F14.9°C 99% 0.7 mph W1.1 kmh W 2.2 mph3.5 kmh 29.87 in1011.5 mb 0.00 in0.0 mm 0.00 in/hr0.0 mm/hr 0.27 in6.9 mm
10:10 AM 59.2°F15.1°C 58.9°F14.9°C 99% 0.7 mph WSW1.1 kmh WSW 2.2 mph3.5 kmh 29.87 in1011.5 mb 0.00 in0.0 mm 0.00 in/hr0.0 mm/hr 0.27 in6.9 mm
10:05 AM 59.2°F15.1°C 58.9°F14.9°C 99% Calm Calm 2.2 mph3.5 kmh 29.87 in1011.5 mb 0.00 in0.0 mm 0.00 in/hr0.0 mm/hr 0.27 in6.9 mm
10:00 AM 59.2°F15.1°C 58.9°F14.9°C 99% Calm Calm 3.1 mph5.0 kmh 29.87 in1011.5 mb 0.00 in0.0 mm 0.00 in/hr0.0 mm/hr 0.27 in6.9 mm
09:55 AM 59.2°F15.1°C 58.9°F14.9°C 99% 0.7 mph WSW1.1 kmh WSW 3.1 mph5.0 kmh 29.87 in1011.5 mb 0.00 in0.0 mm 0.00 in/hr0.0 mm/hr 0.27 in6.9 mm
09:50 AM 59.2°F15.1°C 58.9°F14.9°C 99% Calm Calm 2.2 mph3.5 kmh 29.87 in1011.5 mb 0.00 in0.0 mm 0.00 in/hr0.0 mm/hr 0.27 in6.9 mm
09:45 AM 59.0°F15.0°C 58.7°F14.8°C 99% Calm Calm 2.2 mph3.5 kmh 29.87 in1011.5 mb 0.00 in0.0 mm 0.00 in/hr0.0 mm/hr 0.27 in6.9 mm
09:40 AM 58.8°F14.9°C 58.6°F14.8°C 99% 0.7 mph W1.1 kmh W 2.2 mph3.5 kmh 29.87 in1011.5 mb 0.00 in0.0 mm 0.00 in/hr0.0 mm/hr 0.27 in6.9 mm
09:35 AM 58.8°F14.9°C 58.6°F14.8°C 99% 0.7 mph W1.1 kmh W 2.2 mph3.5 kmh 29.87 in1011.5 mb 0.00 in0.0 mm 0.00 in/hr0.0 mm/hr 0.27 in6.9 mm
09:30 AM 58.6°F14.8°C 58.4°F14.7°C 99% Calm Calm 1.6 mph2.6 kmh 29.87 in1011.5 mb 0.00 in0.0 mm 0.00 in/hr0.0 mm/hr 0.27 in6.9 mm
09:25 AM 58.5°F14.7°C 58.2°F14.6°C 99% Calm Calm 1.6 mph2.6 kmh 29.88 in1011.9 mb 0.00 in0.0 mm 0.00 in/hr0.0 mm/hr 0.27 in6.9 mm
09:20 AM 58.5°F14.7°C 58.2°F14.6°C 99% Calm Calm 1.6 mph2.6 kmh 29.87 in1011.5 mb 0.00 in0.0 mm 0.00 in/hr0.0 mm/hr 0.27 in6.9 mm
09:15 AM 58.6°F14.8°C 58.4°F14.7°C 99% Calm Calm 1.6 mph2.6 kmh 29.87 in1011.5 mb 0.00 in0.0 mm 0.00 in/hr0.0 mm/hr 0.27 in6.9 mm
09:10 AM 58.5°F14.7°C 58.2°F14.6°C 99% Calm Calm 0.7 mph1.1 kmh 29.87 in1011.5 mb 0.00 in0.0 mm 0.00 in/hr0.0 mm/hr 0.27 in6.9 mm
09:05 AM 58.5°F14.7°C 58.2°F14.6°C 99% Calm Calm 0.7 mph1.1 kmh 29.87 in1011.5 mb 0.01 in0.3 mm 0.00 in/hr0.0 mm/hr 0.27 in6.9 mm
09:00 AM 58.5°F14.7°C 58.2°F14.6°C 99% Calm Calm 0.7 mph1.1 kmh 29.87 in1011.5 mb 0.01 in0.3 mm 0.00 in/hr0.0 mm/hr 0.27 in6.9 mm
08:55 AM 58.5°F14.7°C 58.2°F14.6°C 99% Calm Calm 0.7 mph1.1 kmh 29.87 in1011.5 mb 0.01 in0.3 mm 0.00 in/hr0.0 mm/hr 0.27 in6.9 mm
08:50 AM 58.3°F14.6°C 58.0°F14.4°C 99% Calm Calm 1.6 mph2.6 kmh 29.86 in1011.2 mb 0.01 in0.3 mm 0.00 in/hr0.0 mm/hr 0.27 in6.9 mm
08:45 AM 58.3°F14.6°C 58.0°F14.4°C 99% Calm Calm 1.6 mph2.6 kmh 29.87 in1011.5 mb 0.01 in0.3 mm 0.00 in/hr0.0 mm/hr 0.27 in6.9 mm
08:40 AM 58.3°F14.6°C 58.0°F14.4°C 99% Calm Calm 0.7 mph1.1 kmh 29.87 in1011.5 mb 0.01 in0.3 mm 0.00 in/hr0.0 mm/hr 0.27 in6.9 mm
08:35 AM 58.1°F14.5°C 57.8°F14.3°C 99% Calm Calm 0.7 mph1.1 kmh 29.87 in1011.5 mb 0.01 in0.3 mm 0.00 in/hr0.0 mm/hr 0.27 in6.9 mm
08:30 AM 57.9°F14.4°C 57.7°F14.3°C 99% Calm Calm 1.6 mph2.6 kmh 29.87 in1011.5 mb 0.01 in0.3 mm 0.00 in/hr0.0 mm/hr 0.27 in6.9 mm
08:25 AM 57.9°F14.4°C 57.7°F14.3°C 99% Calm Calm 1.6 mph2.6 kmh 29.86 in1011.2 mb 0.01 in0.3 mm 0.00 in/hr0.0 mm/hr 0.27 in6.9 mm
08:20 AM 57.7°F14.3°C 57.5°F14.2°C 99% Calm Calm 2.2 mph3.5 kmh 29.86 in1011.2 mb 0.01 in0.3 mm 0.00 in/hr0.0 mm/hr 0.27 in6.9 mm
08:15 AM 57.7°F14.3°C 57.5°F14.2°C 99% Calm Calm 2.2 mph3.5 kmh 29.86 in1011.2 mb 0.02 in0.5 mm 0.00 in/hr0.0 mm/hr 0.27 in6.9 mm
08:10 AM 57.7°F14.3°C 57.5°F14.2°C 99% Calm Calm 3.1 mph5.0 kmh 29.86 in1011.2 mb 0.04 in1.0 mm 0.24 in/hr6.1 mm/hr 0.27 in6.9 mm
08:05 AM 57.6°F14.2°C 57.3°F14.1°C 99% Calm Calm 3.1 mph5.0 kmh 29.86 in1011.2 mb 0.02 in0.5 mm 0.00 in/hr0.0 mm/hr 0.26 in6.6 mm
08:00 AM 57.7°F14.3°C 57.5°F14.2°C 99% 0.7 mph S1.1 kmh S 2.2 mph3.5 kmh 29.86 in1011.2 mb 0.02 in0.5 mm 0.00 in/hr0.0 mm/hr 0.26 in6.6 mm
07:55 AM 57.7°F14.3°C 57.5°F14.2°C 99% Calm Calm 2.2 mph3.5 kmh 29.86 in1011.2 mb 0.04 in1.0 mm 0.00 in/hr0.0 mm/hr 0.26 in6.6 mm
07:50 AM 57.7°F14.3°C 57.5°F14.2°C 99% Calm Calm 2.2 mph3.5 kmh 29.86 in1011.2 mb 0.04 in1.0 mm 0.00 in/hr0.0 mm/hr 0.26 in6.6 mm
07:45 AM 57.6°F14.2°C 57.3°F14.1°C 99% Calm Calm 2.2 mph3.5 kmh 29.86 in1011.2 mb 0.04 in1.0 mm 0.00 in/hr0.0 mm/hr 0.26 in6.6 mm
07:40 AM 57.6°F14.2°C 57.3°F14.1°C 99% Calm Calm 2.2 mph3.5 kmh 29.85 in1010.8 mb 0.05 in1.3 mm 0.00 in/hr0.0 mm/hr 0.26 in6.6 mm
07:35 AM 57.4°F14.1°C 57.1°F13.9°C 99% 0.7 mph SSE1.1 kmh SSE 2.2 mph3.5 kmh 29.85 in1010.8 mb 0.05 in1.3 mm 0.00 in/hr0.0 mm/hr 0.26 in6.6 mm
07:30 AM 57.4°F14.1°C 57.1°F13.9°C 99% Calm Calm 2.2 mph3.5 kmh 29.85 in1010.8 mb 0.05 in1.3 mm 0.00 in/hr0.0 mm/hr 0.26 in6.6 mm
07:25 AM 57.4°F14.1°C 57.1°F13.9°C 99% Calm Calm 1.6 mph2.6 kmh 29.86 in1011.2 mb 0.06 in1.5 mm 0.00 in/hr0.0 mm/hr 0.26 in6.6 mm
07:20 AM 57.6°F14.2°C 57.3°F14.1°C 99% Calm Calm 1.6 mph2.6 kmh 29.85 in1010.8 mb 0.06 in1.5 mm 0.00 in/hr0.0 mm/hr 0.26 in6.6 mm
07:15 AM 57.6°F14.2°C 57.3°F14.1°C 99% Calm Calm 1.6 mph2.6 kmh 29.85 in1010.8 mb 0.06 in1.5 mm 0.12 in/hr3.0 mm/hr 0.25 in6.4 mm
07:10 AM 57.6°F14.2°C 57.3°F14.1°C 99% Calm Calm 1.6 mph2.6 kmh 29.85 in1010.8 mb 0.05 in1.3 mm 0.00 in/hr0.0 mm/hr 0.24 in6.1 mm
07:05 AM 57.6°F14.2°C 57.3°F14.1°C 99% 0.7 mph SE1.1 kmh SE 1.6 mph2.6 kmh 29.85 in1010.8 mb 0.06 in1.5 mm 0.00 in/hr0.0 mm/hr 0.24 in6.1 mm
07:00 AM 57.6°F14.2°C 57.3°F14.1°C 99% Calm Calm 1.6 mph2.6 kmh 29.85 in1010.8 mb 0.06 in1.5 mm 0.00 in/hr0.0 mm/hr 0.24 in6.1 mm
06:55 AM 57.6°F14.2°C 57.3°F14.1°C 99% Calm Calm 3.1 mph5.0 kmh 29.84 in1010.5 mb 0.06 in1.5 mm 0.00 in/hr0.0 mm/hr 0.22 in5.6 mm
06:50 AM 57.4°F14.1°C 57.1°F13.9°C 99% 0.7 mph SSE1.1 kmh SSE 3.1 mph5.0 kmh 29.85 in1010.8 mb 0.07 in1.8 mm 0.00 in/hr0.0 mm/hr 0.22 in5.6 mm
06:45 AM 57.4°F14.1°C 57.1°F13.9°C 99% Calm Calm 2.2 mph3.5 kmh 29.84 in1010.5 mb 0.08 in2.0 mm 0.12 in/hr3.0 mm/hr 0.22 in5.6 mm
06:40 AM 57.4°F14.1°C 57.1°F13.9°C 99% 0.7 mph SE1.1 kmh SE 2.2 mph3.5 kmh 29.84 in1010.5 mb 0.07 in1.8 mm 0.00 in/hr0.0 mm/hr 0.21 in5.3 mm
06:35 AM 57.6°F14.2°C 57.3°F14.1°C 99% Calm Calm 3.1 mph5.0 kmh 29.84 in1010.5 mb 0.08 in2.0 mm 0.00 in/hr0.0 mm/hr 0.21 in5.3 mm
06:30 AM 57.4°F14.1°C 57.1°F13.9°C 99% Calm Calm 3.1 mph5.0 kmh 29.85 in1010.8 mb 0.09 in2.3 mm 0.12 in/hr3.0 mm/hr 0.21 in5.3 mm
06:25 AM 57.4°F14.1°C 57.1°F13.9°C 99% 0.7 mph S1.1 kmh S 2.2 mph3.5 kmh 29.84 in1010.5 mb 0.08 in2.0 mm 0.00 in/hr0.0 mm/hr 0.20 in5.1 mm
06:20 AM 57.4°F14.1°C 57.1°F13.9°C 99% 0.7 mph S1.1 kmh S 3.1 mph5.0 kmh 29.84 in1010.5 mb 0.08 in2.0 mm 0.00 in/hr0.0 mm/hr 0.20 in5.1 mm
06:15 AM 57.4°F14.1°C 57.1°F13.9°C 99% Calm Calm 3.1 mph5.0 kmh 29.84 in1010.5 mb 0.08 in2.0 mm 0.00 in/hr0.0 mm/hr 0.19 in4.8 mm
06:10 AM 57.4°F14.1°C 57.1°F13.9°C 99% Calm Calm 2.2 mph3.5 kmh 29.84 in1010.5 mb 0.08 in2.0 mm 0.00 in/hr0.0 mm/hr 0.19 in4.8 mm
06:05 AM 57.4°F14.1°C 57.1°F13.9°C 99% 0.7 mph S1.1 kmh S 2.2 mph3.5 kmh 29.84 in1010.5 mb 0.08 in2.0 mm 0.00 in/hr0.0 mm/hr 0.18 in4.6 mm
06:00 AM 57.6°F14.2°C 57.3°F14.1°C 99% Calm Calm 3.1 mph5.0 kmh 29.84 in1010.5 mb 0.08 in2.0 mm 0.01 in/hr0.3 mm/hr 0.18 in4.6 mm
05:55 AM 57.6°F14.2°C 57.3°F14.1°C 99% Calm Calm 3.1 mph5.0 kmh 29.83 in1010.2 mb 0.07 in1.8 mm 0.00 in/hr0.0 mm/hr 0.17 in4.3 mm
05:50 AM 57.7°F14.3°C 57.5°F14.2°C 99% Calm Calm 2.2 mph3.5 kmh 29.83 in1010.2 mb 0.07 in1.8 mm 0.12 in/hr3.0 mm/hr 0.15 in3.8 mm
05:45 AM 57.7°F14.3°C 57.5°F14.2°C 99% Calm Calm 3.8 mph6.1 kmh 29.83 in1010.2 mb 0.06 in1.5 mm 0.00 in/hr0.0 mm/hr 0.14 in3.6 mm
05:40 AM 57.7°F14.3°C 57.5°F14.2°C 99% 0.7 mph SE1.1 kmh SE 3.8 mph6.1 kmh 29.83 in1010.2 mb 0.06 in1.5 mm 0.00 in/hr0.0 mm/hr 0.14 in3.6 mm
05:35 AM 57.7°F14.3°C 57.5°F14.2°C 99% 1.6 mph SSE2.6 kmh SSE 3.1 mph5.0 kmh 29.83 in1010.2 mb 0.06 in1.5 mm 0.12 in/hr3.0 mm/hr 0.13 in3.3 mm
05:30 AM 57.7°F14.3°C 57.5°F14.2°C 99% 0.7 mph SSE1.1 kmh SSE 3.1 mph5.0 kmh 29.83 in1010.2 mb 0.05 in1.3 mm 0.00 in/hr0.0 mm/hr 0.12 in3.0 mm
05:25 AM 57.7°F14.3°C 57.5°F14.2°C 99% 0.7 mph SSE1.1 kmh SSE 2.2 mph3.5 kmh 29.83 in1010.2 mb 0.05 in1.3 mm 0.12 in/hr3.0 mm/hr 0.12 in3.0 mm
05:20 AM 57.7°F14.3°C 57.5°F14.2°C 99% Calm Calm 2.2 mph3.5 kmh 29.83 in1010.2 mb 0.04 in1.0 mm 0.00 in/hr0.0 mm/hr 0.11 in2.8 mm
05:15 AM 57.7°F14.3°C 57.5°F14.2°C 99% Calm Calm 2.2 mph3.5 kmh 29.83 in1010.2 mb 0.04 in1.0 mm 0.00 in/hr0.0 mm/hr 0.11 in2.8 mm
05:10 AM 57.9°F14.4°C 57.7°F14.3°C 99% Calm Calm 2.2 mph3.5 kmh 29.82 in1009.8 mb 0.04 in1.0 mm 0.00 in/hr0.0 mm/hr 0.11 in2.8 mm
05:05 AM 57.9°F14.4°C 57.7°F14.3°C 99% Calm Calm 1.6 mph2.6 kmh 29.82 in1009.8 mb 0.05 in1.3 mm 0.00 in/hr0.0 mm/hr 0.09 in2.3 mm
05:00 AM 57.9°F14.4°C 57.7°F14.3°C 99% Calm Calm 1.6 mph2.6 kmh 29.81 in1009.5 mb 0.05 in1.3 mm 0.00 in/hr0.0 mm/hr 0.09 in2.3 mm
04:55 AM 57.9°F14.4°C 57.7°F14.3°C 99% 0.7 mph SW1.1 kmh SW 1.6 mph2.6 kmh 29.81 in1009.5 mb 0.05 in1.3 mm 0.00 in/hr0.0 mm/hr 0.09 in2.3 mm
04:50 AM 57.9°F14.4°C 57.7°F14.3°C 99% Calm Calm 1.6 mph2.6 kmh 29.81 in1009.5 mb 0.05 in1.3 mm 0.00 in/hr0.0 mm/hr 0.08 in2.0 mm
04:45 AM 58.1°F14.5°C 57.8°F14.3°C 99% Calm Calm 1.6 mph2.6 kmh 29.81 in1009.5 mb 0.05 in1.3 mm 0.00 in/hr0.0 mm/hr 0.08 in2.0 mm
04:40 AM 58.1°F14.5°C 57.8°F14.3°C 99% Calm Calm 1.6 mph2.6 kmh 29.81 in1009.5 mb 0.05 in1.3 mm 0.00 in/hr0.0 mm/hr 0.08 in2.0 mm
04:35 AM 58.1°F14.5°C 57.8°F14.3°C 99% Calm Calm 0.7 mph1.1 kmh 29.81 in1009.5 mb 0.05 in1.3 mm 0.00 in/hr0.0 mm/hr 0.07 in1.8 mm
04:30 AM 58.3°F14.6°C 58.0°F14.4°C 99% Calm Calm 0.7 mph1.1 kmh 29.81 in1009.5 mb 0.05 in1.3 mm 0.00 in/hr0.0 mm/hr 0.07 in1.8 mm
04:25 AM 58.3°F14.6°C 58.0°F14.4°C 99% Calm Calm 1.6 mph2.6 kmh 29.81 in1009.5 mb 0.05 in1.3 mm 0.00 in/hr0.0 mm/hr 0.07 in1.8 mm
04:20 AM 58.3°F14.6°C 57.7°F14.3°C 98% Calm Calm 1.6 mph2.6 kmh 29.81 in1009.5 mb 0.05 in1.3 mm 0.00 in/hr0.0 mm/hr 0.07 in1.8 mm
04:15 AM 58.5°F14.7°C 57.6°F14.2°C 97% Calm Calm 0.7 mph1.1 kmh 29.81 in1009.5 mb 0.05 in1.3 mm 0.00 in/hr0.0 mm/hr 0.07 in1.8 mm
04:10 AM 58.6°F14.8°C 57.8°F14.3°C 97% Calm Calm 0.7 mph1.1 kmh 29.81 in1009.5 mb 0.05 in1.3 mm 0.36 in/hr9.1 mm/hr 0.07 in1.8 mm
04:05 AM 59.2°F15.1°C 57.8°F14.3°C 95% Calm Calm 1.6 mph2.6 kmh 29.81 in1009.5 mb 0.02 in0.5 mm 0.00 in/hr0.0 mm/hr 0.05 in1.3 mm
04:00 AM 59.2°F15.1°C 57.8°F14.3°C 95% Calm Calm 3.1 mph5.0 kmh 29.81 in1009.5 mb 0.02 in0.5 mm 0.00 in/hr0.0 mm/hr 0.05 in1.3 mm
03:55 AM 59.4°F15.2°C 57.9°F14.4°C 95% Calm Calm 3.8 mph6.1 kmh 29.81 in1009.5 mb 0.02 in0.5 mm 0.00 in/hr0.0 mm/hr 0.05 in1.3 mm
03:50 AM 59.4°F15.2°C 57.9°F14.4°C 95% Calm Calm 3.8 mph6.1 kmh 29.81 in1009.5 mb 0.02 in0.5 mm 0.00 in/hr0.0 mm/hr 0.04 in1.0 mm
03:45 AM 59.2°F15.1°C 58.1°F14.5°C 96% Calm Calm 3.1 mph5.0 kmh 29.81 in1009.5 mb 0.02 in0.5 mm 0.00 in/hr0.0 mm/hr 0.04 in1.0 mm
03:40 AM 59.2°F15.1°C 58.1°F14.5°C 96% Calm Calm 3.1 mph5.0 kmh 29.81 in1009.5 mb 0.02 in0.5 mm 0.00 in/hr0.0 mm/hr 0.04 in1.0 mm
03:35 AM 59.2°F15.1°C 58.1°F14.5°C 96% Calm Calm 3.8 mph6.1 kmh 29.81 in1009.5 mb 0.02 in0.5 mm 0.00 in/hr0.0 mm/hr 0.02 in0.5 mm
03:30 AM 59.2°F15.1°C 57.8°F14.3°C 95% Calm Calm 3.8 mph6.1 kmh 29.81 in1009.5 mb 0.02 in0.5 mm 0.00 in/hr0.0 mm/hr 0.02 in0.5 mm
03:25 AM 59.2°F15.1°C 57.8°F14.3°C 95% Calm Calm 3.1 mph5.0 kmh 29.80 in1009.1 mb 0.02 in0.5 mm 0.00 in/hr0.0 mm/hr 0.02 in0.5 mm
03:20 AM 59.2°F15.1°C 57.5°F14.2°C 94% Calm Calm 1.6 mph2.6 kmh 29.80 in1009.1 mb 0.02 in0.5 mm 0.00 in/hr0.0 mm/hr 0.02 in0.5 mm
03:15 AM 59.4°F15.2°C 57.6°F14.2°C 94% Calm Calm 1.6 mph2.6 kmh 29.80 in1009.1 mb 0.02 in0.5 mm 0.00 in/hr0.0 mm/hr 0.02 in0.5 mm
03:10 AM 59.4°F15.2°C 57.3°F14.1°C 93% Calm Calm 0.7 mph1.1 kmh 29.81 in1009.5 mb 0.02 in0.5 mm 0.00 in/hr0.0 mm/hr 0.02 in0.5 mm
03:05 AM 59.5°F15.3°C 56.9°F13.8°C 91% Calm Calm 0.7 mph1.1 kmh 29.80 in1009.1 mb 0.02 in0.5 mm 0.00 in/hr0.0 mm/hr 0.02 in0.5 mm
03:00 AM 59.5°F15.3°C 56.9°F13.8°C 91% Calm Calm 0.7 mph1.1 kmh 29.80 in1009.1 mb 0.02 in0.5 mm 0.00 in/hr0.0 mm/hr 0.02 in0.5 mm
02:55 AM 59.9°F15.5°C 57.3°F14.1°C 91% Calm Calm 1.6 mph2.6 kmh 29.80 in1009.1 mb 0.02 in0.5 mm 0.12 in/hr3.0 mm/hr 0.02 in0.5 mm
02:50 AM 60.3°F15.7°C 57.3°F14.1°C 90% Calm Calm 2.2 mph3.5 kmh 29.80 in1009.1 mb 0.01 in0.3 mm 0.00 in/hr0.0 mm/hr 0.01 in0.3 mm
02:45 AM 60.6°F15.9°C 57.1°F13.9°C 88% Calm Calm 2.2 mph3.5 kmh 29.80 in1009.1 mb 0.01 in0.3 mm 0.00 in/hr0.0 mm/hr 0.01 in0.3 mm
02:40 AM 61.0°F16.1°C 57.1°F13.9°C 87% Calm Calm 2.2 mph3.5 kmh 29.80 in1009.1 mb 0.01 in0.3 mm 0.12 in/hr3.0 mm/hr 0.01 in0.3 mm
02:35 AM 61.2°F16.2°C 57.0°F13.9°C 86% Calm Calm 3.8 mph6.1 kmh 29.80 in1009.1 mb 0.00 in0.0 mm 0.00 in/hr0.0 mm/hr 0.00 in0.0 mm
02:30 AM 61.5°F16.4°C 57.3°F14.1°C 86% Calm Calm 3.8 mph6.1 kmh 29.81 in1009.5 mb 0.00 in0.0 mm 0.00 in/hr0.0 mm/hr 0.00 in0.0 mm
02:25 AM 61.5°F16.4°C 57.0°F13.9°C 85% Calm Calm 2.2 mph3.5 kmh 29.81 in1009.5 mb 0.00 in0.0 mm 0.00 in/hr0.0 mm/hr 0.00 in0.0 mm
02:20 AM 61.7°F16.5°C 57.2°F14.0°C 85% 0.7 mph S1.1 kmh S 2.2 mph3.5 kmh 29.81 in1009.5 mb 0.00 in0.0 mm 0.00 in/hr0.0 mm/hr 0.00 in0.0 mm
02:15 AM 61.7°F16.5°C 57.2°F14.0°C 85% 0.7 mph SE1.1 kmh SE 2.2 mph3.5 kmh 29.81 in1009.5 mb 0.00 in0.0 mm 0.00 in/hr0.0 mm/hr 0.00 in0.0 mm
02:10 AM 61.7°F16.5°C 56.8°F13.8°C 84% Calm Calm 1.6 mph2.6 kmh 29.81 in1009.5 mb 0.00 in0.0 mm 0.00 in/hr0.0 mm/hr 0.00 in0.0 mm
02:05 AM 61.9°F16.6°C 56.7°F13.7°C 83% Calm Calm 2.2 mph3.5 kmh 29.81 in1009.5 mb 0.00 in0.0 mm 0.00 in/hr0.0 mm/hr 0.00 in0.0 mm
02:00 AM 61.9°F16.6°C 56.7°F13.7°C 83% Calm Calm 2.2 mph3.5 kmh 29.81 in1009.5 mb 0.00 in0.0 mm 0.00 in/hr0.0 mm/hr 0.00 in0.0 mm
01:55 AM 61.9°F16.6°C 56.7°F13.7°C 83% Calm Calm 2.2 mph3.5 kmh 29.81 in1009.5 mb 0.00 in0.0 mm 0.00 in/hr0.0 mm/hr 0.00 in0.0 mm
01:50 AM 62.1°F16.7°C 56.9°F13.8°C 83% Calm Calm 1.6 mph2.6 kmh 29.81 in1009.5 mb 0.00 in0.0 mm 0.00 in/hr0.0 mm/hr 0.00 in0.0 mm
01:45 AM 62.1°F16.7°C 56.5°F13.6°C 82% Calm Calm 3.1 mph5.0 kmh 29.81 in1009.5 mb 0.00 in0.0 mm 0.00 in/hr0.0 mm/hr 0.00 in0.0 mm
01:40 AM 62.1°F16.7°C 56.5°F13.6°C 82% Calm Calm 3.8 mph6.1 kmh 29.80 in1009.1 mb 0.00 in0.0 mm 0.00 in/hr0.0 mm/hr 0.00 in0.0 mm
01:35 AM 62.1°F16.7°C 56.5°F13.6°C 82% Calm Calm 3.8 mph6.1 kmh 29.80 in1009.1 mb 0.00 in0.0 mm 0.00 in/hr0.0 mm/hr 0.00 in0.0 mm
01:30 AM 61.9°F16.6°C 56.3°F13.5°C 82% 0.7 mph ESE1.1 kmh ESE 3.8 mph6.1 kmh 29.81 in1009.5 mb 0.00 in0.0 mm 0.00 in/hr0.0 mm/hr 0.00 in0.0 mm
01:25 AM 62.1°F16.7°C 56.9°F13.8°C 83% Calm Calm 5.4 mph8.7 kmh 29.81 in1009.5 mb 0.00 in0.0 mm 0.00 in/hr0.0 mm/hr 0.00 in0.0 mm
01:20 AM 61.9°F16.6°C 56.3°F13.5°C 82% Calm Calm 5.4 mph8.7 kmh 29.81 in1009.5 mb 0.00 in0.0 mm 0.00 in/hr0.0 mm/hr 0.00 in0.0 mm
01:15 AM 61.9°F16.6°C 56.7°F13.7°C 83% Calm Calm 3.1 mph5.0 kmh 29.81 in1009.5 mb 0.00 in0.0 mm 0.00 in/hr0.0 mm/hr 0.00 in0.0 mm
01:10 AM 61.7°F16.5°C 56.8°F13.8°C 84% 1.6 mph SE2.6 kmh SE 3.1 mph5.0 kmh 29.81 in1009.5 mb 0.00 in0.0 mm 0.00 in/hr0.0 mm/hr 0.00 in0.0 mm
01:05 AM 61.5°F16.4°C 57.0°F13.9°C 85% Calm Calm 2.2 mph3.5 kmh 29.81 in1009.5 mb 0.00 in0.0 mm 0.00 in/hr0.0 mm/hr 0.00 in0.0 mm
01:00 AM 61.5°F16.4°C 57.0°F13.9°C 85% Calm Calm 2.2 mph3.5 kmh 29.81 in1009.5 mb 0.00 in0.0 mm 0.00 in/hr0.0 mm/hr 0.00 in0.0 mm
12:55 AM 61.5°F16.4°C 57.0°F13.9°C 85% Calm Calm 2.2 mph3.5 kmh 29.81 in1009.5 mb 0.00 in0.0 mm 0.00 in/hr0.0 mm/hr 0.00 in0.0 mm
12:50 AM 61.3°F16.3°C 56.8°F13.8°C 85% Calm Calm 2.2 mph3.5 kmh 29.81 in1009.5 mb 0.00 in0.0 mm 0.00 in/hr0.0 mm/hr 0.00 in0.0 mm
12:45 AM 61.3°F16.3°C 57.1°F13.9°C 86% Calm Calm 3.1 mph5.0 kmh 29.81 in1009.5 mb 0.00 in0.0 mm 0.00 in/hr0.0 mm/hr 0.00 in0.0 mm
12:40 AM 61.2°F16.2°C 57.0°F13.9°C 86% Calm Calm 3.1 mph5.0 kmh 29.81 in1009.5 mb 0.00 in0.0 mm 0.00 in/hr0.0 mm/hr 0.00 in0.0 mm
12:35 AM 61.2°F16.2°C 57.0°F13.9°C 86% Calm Calm 2.2 mph3.5 kmh 29.81 in1009.5 mb 0.00 in0.0 mm 0.00 in/hr0.0 mm/hr 0.00 in0.0 mm
12:30 AM 61.3°F16.3°C 57.5°F14.2°C 87% Calm Calm 3.8 mph6.1 kmh 29.81 in1009.5 mb 0.00 in0.0 mm 0.00 in/hr0.0 mm/hr 0.00 in0.0 mm
12:25 AM 61.3°F16.3°C 57.5°F14.2°C 87% Calm Calm 3.8 mph6.1 kmh 29.81 in1009.5 mb 0.00 in0.0 mm 0.00 in/hr0.0 mm/hr 0.00 in0.0 mm
12:20 AM 61.2°F16.2°C 57.3°F14.1°C 87% Calm Calm 4.5 mph7.2 kmh 29.82 in1009.8 mb 0.00 in0.0 mm 0.00 in/hr0.0 mm/hr 0.00 in0.0 mm
12:15 AM 61.2°F16.2°C 57.3°F14.1°C 87% Calm Calm 4.5 mph7.2 kmh 29.82 in1009.8 mb 0.00 in0.0 mm 0.00 in/hr0.0 mm/hr 0.00 in0.0 mm
12:10 AM 61.0°F16.1°C 57.4°F14.1°C 88% 2.2 mph S3.5 kmh S 4.5 mph7.2 kmh 29.82 in1009.8 mb 0.00 in0.0 mm 0.00 in/hr0.0 mm/hr 0.00 in0.0 mm
12:05 AM 61.0°F16.1°C 57.1°F13.9°C 87% Calm Calm 2.2 mph3.5 kmh 29.82 in1009.8 mb 0.00 in0.0 mm 0.00 in/hr0.0 mm/hr 0.00 in0.0 mm
12:00 AM 61.0°F16.1°C 57.1°F13.9°C 87% Calm Calm 2.2 mph3.5 kmh 29.82 in1009.8 mb 0.00 in0.0 mm 0.00 in/hr0.0 mm/hr 0.00 in0.0 mm